アデレード の空港の天気 - METARとTAF

アデレード空港 ( YPAD / ADL ) - オーストラリア 南オーストラリア州アデレード
飛行場実況気象(Metar)
観測時間07/17 18:30 ACST (07/17 09:00 UTC)
風向・風速西 9m/s
視程10km以上
天気現象周辺でしゅう雨
少しの雲 雲底高度 910m
全天の8割程度の雲 雲底高度 2190m
気温13℃
湿度58%
気圧1014hPa
METARYPAD 170900Z 28018KT 9999 VCSH FEW030 BKN072 13/05 Q1014 NOSIG
過去の天気等 Google飛行場航空写真 Wunderground天気予報

過去48時間のMETAR

飛行場予報(TAF)
発表時間: 7/17 16:11 ACST (7/17 06:41 UTC)
予報対象時間: 17日16時 ACST ~ 18日21時 ACST
風向・風速西 7m/s
視程10km以上
天気現象弱いしゅう雨
全天の4割程度の雲 雲底高度 910m
17日17時 ACST から
風向・風速西北西 7m/s
視程10km以上
天気現象運行に影響にある天気現象が終了
全天の4割程度の雲 雲底高度 1220m
18日3時 ACST から
風向・風速北北西 7m/s
視程10km以上
少しの雲 雲底高度 760m
全天の4割程度の雲 雲底高度 1220m
18日10時 ACST から
風向・風速北北西 10m/s 瞬間風速 15m/s
視程10km以上
全天の4割程度の雲 雲底高度 1220m
18日17時 ACST から
風向・風速北北西 7m/s
視程10km以上
少しの雲 雲底高度 1220m
TAF AMD YPAD 170641Z 1707/1812 27014KT 9999 -SHRA SCT030
FM170800 29014KT 9999 NSW SCT040
FM171800 34014KT 9999 FEW025 SCT040
FM180100 33020G30KT 9999 SCT040
FM180800 33014KT 9999 FEW040